createdAt,value
2019-06-10T00:01:38.052Z,2.40
2019-06-10T00:03:42.339Z,2.23
2019-06-10T00:05:46.163Z,2.43
2019-06-10T00:07:51.587Z,2.27
2019-06-10T00:09:56.159Z,2.47
2019-06-10T00:12:02.805Z,2.07
2019-06-10T00:14:07.379Z,2.40
2019-06-10T00:16:11.571Z,2.47
2019-06-10T00:18:34.384Z,2.20
2019-06-10T00:20:21.597Z,2.27
2019-06-10T00:22:25.223Z,2.40
2019-06-10T00:24:31.351Z,2.30
2019-06-10T00:26:34.644Z,2.17
2019-06-10T00:28:40.544Z,2.37
2019-06-10T00:30:44.085Z,2.10
2019-06-10T00:32:48.002Z,2.10
2019-06-10T00:34:52.025Z,2.53
2019-06-10T00:36:55.533Z,2.20
2019-06-10T00:38:59.339Z,2.70
2019-06-10T00:41:05.662Z,2.73
2019-06-10T00:43:09.161Z,2.40
2019-06-10T00:45:18.031Z,2.20
2019-06-10T00:47:21.185Z,2.40
2019-06-10T00:49:25.176Z,2.63
2019-06-10T00:51:28.700Z,2.63
2019-06-10T00:53:32.586Z,2.43
2019-06-10T00:55:36.491Z,2.53
2019-06-10T00:57:41.834Z,2.33
2019-06-10T00:59:45.716Z,2.70
2019-06-10T01:01:50.874Z,2.50
2019-06-10T01:03:54.871Z,2.33
2019-06-10T01:06:01.133Z,2.90
2019-06-10T01:08:04.624Z,2.90
2019-06-10T01:10:12.836Z,2.10
2019-06-10T01:12:15.219Z,2.70
2019-06-10T01:14:18.834Z,2.60
2019-06-10T01:16:23.222Z,2.43
2019-06-10T01:18:35.681Z,2.50
2019-06-10T01:20:32.552Z,2.47
2019-06-10T01:22:36.368Z,2.57
2019-06-10T01:24:40.763Z,2.90
2019-06-10T01:26:44.702Z,2.50
2019-06-10T01:28:48.497Z,2.83
2019-06-10T01:30:52.403Z,2.60
2019-06-10T01:32:55.946Z,2.60
2019-06-10T01:35:01.241Z,2.70
2019-06-10T01:37:05.346Z,2.40
2019-06-10T01:39:11.603Z,2.40
2019-06-10T01:41:15.565Z,2.40
2019-06-10T01:43:21.468Z,2.40
2019-06-10T01:45:25.367Z,2.80
2019-06-10T01:47:30.999Z,2.77
2019-06-10T01:49:34.504Z,2.70
2019-06-10T01:51:41.056Z,2.77
2019-06-10T01:53:44.054Z,2.80
2019-06-10T01:55:47.966Z,2.80
2019-06-10T01:57:51.931Z,2.10
2019-06-10T01:59:55.782Z,2.80
2019-06-10T02:02:01.335Z,2.47
2019-06-10T02:04:05.242Z,2.80
2019-06-10T02:06:12.537Z,2.27
2019-06-10T02:08:16.317Z,2.30
2019-06-10T02:10:22.833Z,2.90
2019-06-10T02:12:25.868Z,2.53
2019-06-10T02:14:31.795Z,3.67
2019-06-10T02:16:35.318Z,2.50
2019-06-10T02:18:42.230Z,3.03
2019-06-10T02:20:44.772Z,2.80
2019-06-10T02:22:48.683Z,2.53
2019-06-10T02:24:52.572Z,3.13
2019-06-10T02:26:56.495Z,2.80
2019-06-10T02:29:00.779Z,2.73
2019-06-10T02:31:04.609Z,2.67
2019-06-10T02:33:11.982Z,2.57
2019-06-10T02:35:25.695Z,2.70
2019-06-10T02:37:23.809Z,3.10
2019-06-10T02:39:33.395Z,2.70
2019-06-10T02:41:35.300Z,2.83
2019-06-10T02:43:37.830Z,2.73
2019-06-10T02:45:44.661Z,3.23
2019-06-10T02:47:47.341Z,3.20
2019-06-10T02:50:01.371Z,3.40
2019-06-10T02:51:56.455Z,2.90
2019-06-10T02:54:00.254Z,3.43
2019-06-10T02:56:04.399Z,2.67
2019-06-10T02:58:08.270Z,3.07
2019-06-10T03:00:20.628Z,3.43
2019-06-10T03:02:18.741Z,3.43
2019-06-10T03:04:28.157Z,2.67
2019-06-10T03:06:34.679Z,2.60
2019-06-10T03:08:36.123Z,2.70
2019-06-10T03:10:39.346Z,3.40
2019-06-10T03:12:42.860Z,3.00
2019-06-10T03:14:46.708Z,2.93
2019-06-10T03:16:52.879Z,2.93
2019-06-10T03:18:56.442Z,3.27
2019-06-10T03:21:02.401Z,2.87
2019-06-10T03:23:05.880Z,3.53
2019-06-10T03:25:09.799Z,4.10
2019-06-10T03:27:13.315Z,3.63
2019-06-10T03:29:16.834Z,2.90
2019-06-10T03:31:22.071Z,2.90
2019-06-10T03:33:34.607Z,3.40
2019-06-10T03:35:33.045Z,3.10
2019-06-10T03:37:36.678Z,3.40
2019-06-10T03:39:42.676Z,3.40
2019-06-10T03:41:46.044Z,3.10
2019-06-10T03:43:49.898Z,3.20
2019-06-10T03:45:53.424Z,3.23
2019-06-10T03:47:57.254Z,3.00
2019-06-10T03:50:03.259Z,2.97
2019-06-10T03:52:06.703Z,3.33
2019-06-10T03:54:12.891Z,2.70
2019-06-10T03:56:17.165Z,2.93
2019-06-10T03:58:22.056Z,2.60
2019-06-10T04:00:27.611Z,2.90
2019-06-10T04:02:32.708Z,3.20
2019-06-10T04:04:36.586Z,2.57
2019-06-10T04:06:43.906Z,3.20
2019-06-10T04:08:46.034Z,2.63
2019-06-10T04:10:51.950Z,3.10
2019-06-10T04:12:55.172Z,3.00
2019-06-10T04:14:59.080Z,3.10
2019-06-10T04:17:02.986Z,3.40
2019-06-10T04:19:06.799Z,3.00
2019-06-10T04:21:12.824Z,3.00
2019-06-10T04:23:17.617Z,3.33
2019-06-10T04:25:24.697Z,3.23
2019-06-10T04:27:28.442Z,3.13
2019-06-10T04:29:32.998Z,3.53
2019-06-10T04:31:36.890Z,3.20
2019-06-10T04:33:42.152Z,3.10
2019-06-10T04:35:45.856Z,3.10
2019-06-10T04:37:51.920Z,3.60
2019-06-10T04:39:57.496Z,3.00
2019-06-10T04:42:02.439Z,3.10
2019-06-10T04:44:06.458Z,2.90
2019-06-10T04:46:12.445Z,3.57
2019-06-10T04:48:15.923Z,3.33
2019-06-10T04:50:28.366Z,3.00
2019-06-10T04:52:26.703Z,3.20
2019-06-10T04:54:33.208Z,3.27
2019-06-10T04:56:36.751Z,2.93
2019-06-10T04:58:43.038Z,2.93
2019-06-10T05:00:46.405Z,3.33
2019-06-10T05:02:52.245Z,3.30
2019-06-10T05:04:56.168Z,3.30
2019-06-10T05:07:02.154Z,2.90
2019-06-10T05:09:06.113Z,3.90
2019-06-10T05:11:09.922Z,3.60
2019-06-10T05:13:13.829Z,3.13
2019-06-10T05:15:19.418Z,3.20
2019-06-10T05:17:26.127Z,2.90
2019-06-10T05:19:30.626Z,3.23
2019-06-10T05:21:34.688Z,2.90
2019-06-10T05:23:38.592Z,3.20
2019-06-10T05:25:42.769Z,3.50
2019-06-10T05:27:46.717Z,2.90
2019-06-10T05:29:52.665Z,3.27
2019-06-10T05:31:55.868Z,3.30
2019-06-10T05:33:59.407Z,3.53
2019-06-10T05:36:03.249Z,3.10
2019-06-10T05:38:06.773Z,3.27
2019-06-10T05:40:12.746Z,3.60
2019-06-10T05:42:16.697Z,2.73
2019-06-10T05:44:23.802Z,3.70
2019-06-10T05:46:27.315Z,3.83
2019-06-10T05:48:33.622Z,3.40
2019-06-10T05:50:37.447Z,3.00
2019-06-10T05:52:42.747Z,3.17
2019-06-10T05:54:46.691Z,3.30
2019-06-10T05:56:52.167Z,3.60
2019-06-10T05:58:56.234Z,3.40
2019-06-10T06:01:02.502Z,3.40
2019-06-10T06:03:05.708Z,3.40
2019-06-10T06:05:12.803Z,3.17
2019-06-10T06:07:16.381Z,3.00
2019-06-10T06:09:22.121Z,3.00
2019-06-10T06:11:25.532Z,4.17
2019-06-10T06:13:29.524Z,3.17
2019-06-10T06:15:35.743Z,3.33
2019-06-10T06:17:38.626Z,3.03
2019-06-10T06:19:43.331Z,3.20
2019-06-10T06:21:47.926Z,3.57
2019-06-10T06:23:52.866Z,3.30
2019-06-10T06:25:56.834Z,2.73
2019-06-10T06:28:02.861Z,3.03
2019-06-10T06:30:12.062Z,2.80
2019-06-10T06:32:13.328Z,3.10
2019-06-10T06:34:17.192Z,3.20
2019-06-10T06:36:22.695Z,3.27
2019-06-10T06:38:26.892Z,3.30
2019-06-10T06:40:32.752Z,3.13
2019-06-10T06:42:37.061Z,3.00
2019-06-10T06:44:43.315Z,2.73
2019-06-10T06:46:46.831Z,3.00
2019-06-10T06:48:52.958Z,3.33
2019-06-10T06:51:04.017Z,2.87
2019-06-10T06:53:19.749Z,3.13
2019-06-10T06:55:07.397Z,3.73
2019-06-10T06:57:13.049Z,2.90
2019-06-10T06:59:16.525Z,3.97
2019-06-10T07:01:24.880Z,6.73
2019-06-10T07:03:26.005Z,3.30
2019-06-10T07:05:32.691Z,3.40
2019-06-10T07:07:38.685Z,3.23
2019-06-10T07:09:44.866Z,3.10
2019-06-10T07:11:49.297Z,2.80
2019-06-10T07:13:55.005Z,3.40
2019-06-10T07:15:58.528Z,3.00
2019-06-10T07:18:02.485Z,2.40
2019-06-10T07:20:09.167Z,2.90
2019-06-10T07:22:16.142Z,2.43
2019-06-10T07:24:18.366Z,2.77
2019-06-10T07:26:22.273Z,2.50
2019-06-10T07:28:26.357Z,2.80
2019-06-10T07:30:34.309Z,3.17
2019-06-10T07:32:38.704Z,2.43
2019-06-10T07:34:45.007Z,2.43
2019-06-10T07:36:47.315Z,2.87
2019-06-10T07:38:53.850Z,2.33
2019-06-10T07:40:56.665Z,3.00
2019-06-10T07:43:02.226Z,2.90
2019-06-10T07:45:07.858Z,2.43
2019-06-10T07:47:12.828Z,2.87
2019-06-10T07:49:16.792Z,3.10
2019-06-10T07:51:22.582Z,2.90
2019-06-10T07:53:26.320Z,2.60
2019-06-10T07:55:32.800Z,2.53
2019-06-10T07:57:36.311Z,2.90
2019-06-10T07:59:44.552Z,2.93
2019-06-10T08:01:51.513Z,3.13
2019-06-10T08:03:52.947Z,3.30
2019-06-10T08:05:56.844Z,3.80
2019-06-10T08:08:02.840Z,2.83
2019-06-10T08:10:07.290Z,2.93
2019-06-10T08:12:12.714Z,2.90
2019-06-10T08:14:16.758Z,3.03
2019-06-10T08:16:23.382Z,2.43
2019-06-10T08:18:26.205Z,2.67
2019-06-10T08:20:45.559Z,3.10
2019-06-10T08:22:54.067Z,3.50
2019-06-10T08:24:54.612Z,4.70
2019-06-10T08:26:58.153Z,3.00
2019-06-10T08:29:04.427Z,2.77
2019-06-10T08:31:07.553Z,3.90
2019-06-10T08:33:13.565Z,3.23
2019-06-10T08:35:16.995Z,3.13
2019-06-10T08:37:23.479Z,2.67
2019-06-10T08:39:26.456Z,3.67
2019-06-10T08:41:32.135Z,3.40
2019-06-10T08:43:36.433Z,3.43
2019-06-10T08:45:43.314Z,3.00
2019-06-10T08:47:47.251Z,2.90
2019-06-10T08:49:52.949Z,4.40
2019-06-10T08:51:56.229Z,3.20
2019-06-10T08:54:02.144Z,2.90
2019-06-10T08:56:05.268Z,2.83
2019-06-10T08:58:09.291Z,4.43
2019-06-10T09:00:15.563Z,3.03
2019-06-10T09:02:19.556Z,2.97
2019-06-10T09:04:23.084Z,3.47
2019-06-10T09:06:26.626Z,2.87
2019-06-10T09:08:32.617Z,7.80
2019-06-10T09:10:35.995Z,9.33
2019-06-10T09:12:40.051Z,2.67
2019-06-10T09:14:46.792Z,7.60
2019-06-10T09:16:51.453Z,3.10
2019-06-10T09:18:55.814Z,2.57
2019-06-10T09:21:02.140Z,2.40
2019-06-10T09:23:17.839Z,2.70
2019-06-10T09:25:12.424Z,2.60
2019-06-10T09:27:16.345Z,3.87
2019-06-10T09:29:22.169Z,3.57
2019-06-10T09:31:25.383Z,2.63
2019-06-10T09:33:29.340Z,2.70
2019-06-10T09:35:32.814Z,2.60
2019-06-10T09:37:36.694Z,2.27
2019-06-10T09:39:43.727Z,2.57
2019-06-10T09:41:55.396Z,2.87
2019-06-10T09:43:56.557Z,2.93
2019-06-10T09:45:57.019Z,3.10
2019-06-10T09:48:03.860Z,2.80
2019-06-10T09:50:14.140Z,2.87
2019-06-10T09:52:17.966Z,2.47
2019-06-10T09:54:22.776Z,2.73
2019-06-10T09:56:26.780Z,2.57
2019-06-10T09:58:32.938Z,3.13
2019-06-10T10:00:57.892Z,3.13
2019-06-10T10:03:00.004Z,2.77
2019-06-10T10:05:05.131Z,2.80
2019-06-10T10:07:09.262Z,2.73
2019-06-10T10:09:13.159Z,3.00
2019-06-10T10:11:16.982Z,2.90
2019-06-10T10:13:22.531Z,2.50
2019-06-10T10:15:30.960Z,2.53
2019-06-10T10:17:33.425Z,2.70
2019-06-10T10:19:37.507Z,2.57
2019-06-10T10:21:47.722Z,2.60
2019-06-10T10:23:54.255Z,3.10
2019-06-10T10:25:56.342Z,2.83
2019-06-10T10:27:57.806Z,2.73
2019-06-10T10:30:03.367Z,2.53
2019-06-10T10:32:06.664Z,2.37
2019-06-10T10:34:13.291Z,2.60
2019-06-10T10:36:16.124Z,2.40
2019-06-10T10:38:22.685Z,2.80
2019-06-10T10:40:25.866Z,2.40
2019-06-10T10:42:42.699Z,2.60
2019-06-10T10:44:35.023Z,2.10
2019-06-10T10:46:38.939Z,2.77
2019-06-10T10:48:43.132Z,2.27
2019-06-10T10:50:47.499Z,2.20
2019-06-10T10:52:52.369Z,2.63
2019-06-10T10:54:57.003Z,2.57
2019-06-10T10:57:02.646Z,3.07
2019-06-10T10:59:06.749Z,2.57
2019-06-10T11:01:14.597Z,2.63
2019-06-10T11:03:16.510Z,2.30
2019-06-10T11:05:34.369Z,2.67
2019-06-10T11:07:38.242Z,2.53
2019-06-10T11:09:42.856Z,2.60
2019-06-10T11:11:52.240Z,2.80
2019-06-10T11:13:58.523Z,2.70
2019-06-10T11:16:03.572Z,2.80
2019-06-10T11:18:07.815Z,2.47
2019-06-10T11:20:13.632Z,2.60
2019-06-10T11:22:17.150Z,2.87
2019-06-10T11:24:35.632Z,2.50
2019-06-10T11:26:27.006Z,3.20
2019-06-10T11:28:32.168Z,2.47
2019-06-10T11:30:36.162Z,3.00
2019-06-10T11:32:39.704Z,2.70
2019-06-10T11:34:43.276Z,2.40
2019-06-10T11:36:47.956Z,2.40
2019-06-10T11:38:54.918Z,3.43
2019-06-10T11:40:59.933Z,3.00
2019-06-10T11:43:03.167Z,2.90
2019-06-10T11:45:08.720Z,2.40
2019-06-10T11:47:13.251Z,2.53
2019-06-10T11:49:17.150Z,2.97
2019-06-10T11:51:23.248Z,2.60
2019-06-10T11:53:28.687Z,3.00
2019-06-10T11:55:33.252Z,2.57
2019-06-10T11:57:36.876Z,3.30
2019-06-10T11:59:40.401Z,2.80
2019-06-10T12:01:44.278Z,2.50
2019-06-10T12:03:48.686Z,2.60
2019-06-10T12:05:55.480Z,3.27
2019-06-10T12:08:00.206Z,2.83
2019-06-10T12:10:05.755Z,2.87
2019-06-10T12:12:09.642Z,2.70
2019-06-10T12:14:13.550Z,2.80
2019-06-10T12:17:16.298Z,2.50
2019-06-10T12:18:23.118Z,3.03
2019-06-10T12:20:28.588Z,3.10
2019-06-10T12:22:33.062Z,2.70
2019-06-10T12:24:37.050Z,3.27
2019-06-10T12:26:43.450Z,2.80
2019-06-10T12:28:46.610Z,2.77
2019-06-10T12:30:55.512Z,2.97
2019-06-10T12:32:59.066Z,2.73
2019-06-10T12:35:05.070Z,2.50
2019-06-10T12:37:11.059Z,2.97
2019-06-10T12:39:17.053Z,2.80
2019-06-10T12:41:18.047Z,3.10
2019-06-10T12:43:23.099Z,3.47
2019-06-10T12:45:27.485Z,2.80
2019-06-10T12:47:33.244Z,2.83
2019-06-10T12:49:36.648Z,2.63
2019-06-10T12:51:40.205Z,2.67
2019-06-10T12:53:43.799Z,2.80
2019-06-10T12:55:47.338Z,3.77
2019-06-10T12:57:52.346Z,2.90
2019-06-10T12:59:56.456Z,2.83
2019-06-10T13:02:06.800Z,3.10
2019-06-10T13:04:08.018Z,3.10
2019-06-10T13:06:12.922Z,3.13
2019-06-10T13:08:20.353Z,2.60
2019-06-10T13:10:37.840Z,3.30
2019-06-10T13:12:42.885Z,2.70
2019-06-10T13:14:46.935Z,3.10
2019-06-10T13:16:52.682Z,2.80
2019-06-10T13:18:56.402Z,2.50
2019-06-10T13:21:04.344Z,2.90
2019-06-10T13:23:17.281Z,2.50
2019-06-10T13:25:13.346Z,2.93
2019-06-10T13:27:17.320Z,2.63
2019-06-10T13:29:20.848Z,3.13
2019-06-10T13:31:24.860Z,2.90
2019-06-10T13:33:28.828Z,2.40
2019-06-10T13:35:32.356Z,2.50
2019-06-10T13:37:36.224Z,2.93
2019-06-10T13:39:40.129Z,2.60
2019-06-10T13:41:44.148Z,2.60
2019-06-10T13:43:47.730Z,3.07
2019-06-10T13:45:53.180Z,3.10
2019-06-10T13:47:58.777Z,2.97
2019-06-10T13:50:06.228Z,3.07
2019-06-10T13:52:11.816Z,3.23
2019-06-10T13:54:14.012Z,2.83
2019-06-10T13:56:41.751Z,3.30
2019-06-10T13:58:23.591Z,3.10
2019-06-10T14:00:41.613Z,2.93
2019-06-10T14:02:34.380Z,4.07
2019-06-10T14:04:38.279Z,3.10
2019-06-10T14:06:49.881Z,3.47
2019-06-10T14:08:49.373Z,2.90
2019-06-10T14:10:54.128Z,2.80
2019-06-10T14:12:58.671Z,3.03
2019-06-10T14:15:04.525Z,3.37
2019-06-10T14:17:08.050Z,3.67
2019-06-10T14:19:15.706Z,3.40
2019-06-10T14:21:18.476Z,3.50
2019-06-10T14:23:22.836Z,3.20
2019-06-10T14:25:26.638Z,3.10
2019-06-10T14:27:30.610Z,3.37
2019-06-10T14:29:34.445Z,3.37
2019-06-10T14:31:43.937Z,3.50
2019-06-10T14:33:43.912Z,3.23
2019-06-10T14:35:47.811Z,3.30
2019-06-10T14:37:53.459Z,3.33
2019-06-10T14:39:56.672Z,3.67
2019-06-10T14:42:00.238Z,3.57
2019-06-10T14:44:04.591Z,3.43
2019-06-10T14:46:09.123Z,3.50
2019-06-10T14:48:15.673Z,4.13
2019-06-10T14:50:18.547Z,3.93
2019-06-10T14:52:22.804Z,3.80
2019-06-10T14:54:26.747Z,3.60
2019-06-10T14:56:33.175Z,4.17
2019-06-10T14:58:35.980Z,3.60
2019-06-10T15:00:39.812Z,5.43
2019-06-10T15:02:43.712Z,4.20
2019-06-10T15:04:47.260Z,3.50
2019-06-10T15:06:53.460Z,4.63
2019-06-10T15:08:56.639Z,3.73
2019-06-10T15:11:00.560Z,3.90
2019-06-10T15:13:04.265Z,3.93
2019-06-10T15:15:10.225Z,3.83
2019-06-10T15:17:14.665Z,3.80
2019-06-10T15:19:25.325Z,4.10
2019-06-10T15:21:23.478Z,3.83
2019-06-10T15:23:27.376Z,3.57
2019-06-10T15:25:48.639Z,3.90
2019-06-10T15:27:36.919Z,3.37
2019-06-10T15:29:42.992Z,3.63
2019-06-10T15:31:45.993Z,3.93
2019-06-10T15:33:52.250Z,3.80
2019-06-10T15:35:55.097Z,4.00
2019-06-10T15:37:58.638Z,3.80
2019-06-10T15:40:03.656Z,4.03
2019-06-10T15:42:07.291Z,3.80
2019-06-10T15:44:14.519Z,3.43
2019-06-10T15:46:17.947Z,3.60
2019-06-10T15:48:24.993Z,3.23
2019-06-10T15:50:27.702Z,3.63
2019-06-10T15:52:32.805Z,3.87
2019-06-10T15:54:36.701Z,3.77
2019-06-10T15:56:49.896Z,3.50
2019-06-10T15:58:45.862Z,3.93
2019-06-10T16:00:49.748Z,3.30
2019-06-10T16:02:53.757Z,3.30
2019-06-10T16:04:57.285Z,3.77
2019-06-10T16:07:02.661Z,3.67
2019-06-10T16:09:07.832Z,2.90
2019-06-10T16:11:16.297Z,3.40
2019-06-10T16:13:17.000Z,3.50
2019-06-10T16:15:24.349Z,3.83
2019-06-10T16:17:29.949Z,3.63
2019-06-10T16:19:32.869Z,3.70
2019-06-10T16:21:36.785Z,3.70
2019-06-10T16:23:42.832Z,2.87
2019-06-10T16:25:45.915Z,3.10
2019-06-10T16:27:51.775Z,3.20
2019-06-10T16:29:55.368Z,3.80
2019-06-10T16:31:58.900Z,3.20
2019-06-10T16:34:04.292Z,3.60
2019-06-10T16:36:08.436Z,3.70
2019-06-10T16:38:12.715Z,3.07
2019-06-10T16:40:17.149Z,3.23
2019-06-10T16:42:25.491Z,3.07
2019-06-10T16:44:28.210Z,2.93
2019-06-10T16:46:32.448Z,2.73
2019-06-10T16:48:35.924Z,3.03
2019-06-10T16:50:39.464Z,3.40
2019-06-10T16:52:43.242Z,3.37
2019-06-10T16:54:47.248Z,2.80
2019-06-10T16:56:52.306Z,2.90
2019-06-10T16:58:56.178Z,2.90
2019-06-10T17:01:02.957Z,3.60
2019-06-10T17:03:06.258Z,2.50
2019-06-10T17:05:10.263Z,2.83
2019-06-10T17:07:14.173Z,3.00
2019-06-10T17:09:18.561Z,2.90
2019-06-10T17:11:24.165Z,2.60
2019-06-10T17:13:30.239Z,2.90
2019-06-10T17:15:34.047Z,3.00
2019-06-10T17:17:38.931Z,2.60
2019-06-10T17:19:42.827Z,3.27
2019-06-10T17:21:46.725Z,2.70
2019-06-10T17:23:52.477Z,2.50
2019-06-10T17:25:59.058Z,3.00
2019-06-10T17:28:17.755Z,2.83
2019-06-10T17:30:09.108Z,2.97
2019-06-10T17:32:13.347Z,3.47
2019-06-10T17:34:17.333Z,2.10
2019-06-10T17:36:24.805Z,3.40
2019-06-10T17:38:26.919Z,2.90
2019-06-10T17:40:33.351Z,2.80
2019-06-10T17:42:38.311Z,2.73
2019-06-10T17:44:42.883Z,2.83
2019-06-10T17:46:46.555Z,2.83
2019-06-10T17:48:52.122Z,2.60
2019-06-10T17:50:55.631Z,2.70
2019-06-10T17:52:59.163Z,2.80
2019-06-10T17:55:03.404Z,2.60
2019-06-10T17:57:06.937Z,2.77
2019-06-10T17:59:12.825Z,3.00
2019-06-10T18:01:16.391Z,2.73
2019-06-10T18:03:22.672Z,2.70
2019-06-10T18:05:25.542Z,2.80
2019-06-10T18:07:29.605Z,3.27
2019-06-10T18:09:36.672Z,2.50
2019-06-10T18:11:38.829Z,2.50
2019-06-10T18:13:43.152Z,3.33
2019-06-10T18:15:47.124Z,2.57
2019-06-10T18:17:52.186Z,2.30
2019-06-10T18:19:56.676Z,2.57
2019-06-10T18:22:00.186Z,2.83
2019-06-10T18:24:07.847Z,2.40
2019-06-10T18:26:12.287Z,2.30
2019-06-10T18:28:15.007Z,2.90
2019-06-10T18:30:22.240Z,3.17
2019-06-10T18:32:25.937Z,3.00
2019-06-10T18:34:29.936Z,2.67
2019-06-10T18:36:35.843Z,3.60
2019-06-10T18:38:39.744Z,3.27
2019-06-10T18:40:43.801Z,4.07
2019-06-10T18:42:47.331Z,3.77
2019-06-10T18:44:52.227Z,3.33
2019-06-10T18:46:56.247Z,2.90
2019-06-10T18:49:02.498Z,3.00
2019-06-10T18:51:05.066Z,2.80
2019-06-10T18:53:08.988Z,2.77
2019-06-10T18:55:14.361Z,3.10
2019-06-10T18:57:17.914Z,3.43
2019-06-10T18:59:21.714Z,2.60
2019-06-10T19:01:25.340Z,2.60
2019-06-10T19:03:30.438Z,2.77
2019-06-10T19:05:36.291Z,2.93
2019-06-10T19:07:40.634Z,2.90
2019-06-10T19:09:48.054Z,2.73
2019-06-10T19:11:50.318Z,2.63
2019-06-10T19:13:53.854Z,2.20
2019-06-10T19:15:57.769Z,2.50
2019-06-10T19:18:03.152Z,2.40
2019-06-10T19:20:09.063Z,3.00
2019-06-10T19:22:13.277Z,2.57
2019-06-10T19:24:17.192Z,2.67
2019-06-10T19:26:22.121Z,2.50
2019-06-10T19:28:26.330Z,2.77
2019-06-10T19:30:33.494Z,2.80
2019-06-10T19:32:37.129Z,2.97
2019-06-10T19:34:47.251Z,2.67
2019-06-10T19:36:47.374Z,2.73
2019-06-10T19:38:51.305Z,3.20
2019-06-10T19:40:55.187Z,3.07
2019-06-10T19:42:59.090Z,3.23
2019-06-10T19:45:07.079Z,3.17
2019-06-10T19:47:09.758Z,2.77
2019-06-10T19:49:13.769Z,2.93
2019-06-10T19:51:17.600Z,3.13
2019-06-10T19:53:22.186Z,2.73
2019-06-10T19:55:26.111Z,3.20
2019-06-10T19:57:32.348Z,3.30
2019-06-10T19:59:52.435Z,3.37
2019-06-10T20:01:45.855Z,2.90
2019-06-10T20:03:47.088Z,2.70
2019-06-10T20:05:52.792Z,3.10
2019-06-10T20:07:56.003Z,2.83
2019-06-10T20:09:59.887Z,2.97
2019-06-10T20:12:03.799Z,2.90
2019-06-10T20:14:07.728Z,3.10
2019-06-10T20:16:12.107Z,3.37
2019-06-10T20:18:15.625Z,2.87
2019-06-10T20:20:22.327Z,2.67
2019-06-10T20:22:25.387Z,2.90
2019-06-10T20:24:28.928Z,3.00
2019-06-10T20:26:33.077Z,3.00
2019-06-10T20:28:37.089Z,3.67
2019-06-10T20:30:43.771Z,2.97
2019-06-10T20:32:50.251Z,2.73
2019-06-10T20:34:53.098Z,3.13
2019-06-10T20:36:56.917Z,3.00
2019-06-10T20:39:00.467Z,3.00
2019-06-10T20:41:04.645Z,3.20
2019-06-10T20:43:08.189Z,2.77
2019-06-10T20:45:13.274Z,3.20
2019-06-10T20:47:17.059Z,3.23
2019-06-10T20:49:22.515Z,2.80
2019-06-10T20:51:27.479Z,2.80
2019-06-10T20:53:33.537Z,3.83
2019-06-10T20:55:41.082Z,3.50
2019-06-10T20:57:54.915Z,3.10
2019-06-10T20:59:49.866Z,3.27
2019-06-10T21:01:53.772Z,3.40
2019-06-10T21:03:57.481Z,2.90
2019-06-10T21:06:03.678Z,2.90
2019-06-10T21:08:07.800Z,3.13
2019-06-10T21:10:12.862Z,3.50
2019-06-10T21:12:16.828Z,2.80
2019-06-10T21:14:22.757Z,3.17
2019-06-10T21:16:26.377Z,3.43
2019-06-10T21:18:32.707Z,3.20
2019-06-10T21:20:35.942Z,3.30
2019-06-10T21:22:40.480Z,3.03
2019-06-10T21:24:45.085Z,3.10
2019-06-10T21:26:49.896Z,2.60
2019-06-10T21:28:55.184Z,2.83
2019-06-10T21:30:59.253Z,3.50
2019-06-10T21:33:03.612Z,2.97
2019-06-10T21:35:07.996Z,3.00
2019-06-10T21:37:12.247Z,3.27
2019-06-10T21:39:16.084Z,2.80
2019-06-10T21:41:19.651Z,2.83
2019-06-10T21:43:23.484Z,3.03
2019-06-10T21:45:27.408Z,2.80
2019-06-10T21:47:32.351Z,2.97
2019-06-10T21:49:36.232Z,2.80
2019-06-10T21:51:40.155Z,2.90
2019-06-10T21:53:44.659Z,2.57
2019-06-10T21:55:48.801Z,2.70
2019-06-10T21:57:55.123Z,2.63
2019-06-10T21:59:58.006Z,3.10
2019-06-10T22:02:02.296Z,2.97
2019-06-10T22:04:06.427Z,2.90
2019-06-10T22:06:11.953Z,2.80
2019-06-10T22:08:15.781Z,3.20
2019-06-10T22:10:19.791Z,3.07
2019-06-10T22:12:23.310Z,2.90
2019-06-10T22:14:27.200Z,2.97
2019-06-10T22:16:32.786Z,3.00
2019-06-10T22:18:36.332Z,3.07
2019-06-10T22:20:42.656Z,3.10
2019-06-10T22:22:46.548Z,2.90
2019-06-10T22:24:51.298Z,2.93
2019-06-10T22:26:56.036Z,3.00
2019-06-10T22:28:59.851Z,4.00
2019-06-10T22:31:16.058Z,3.43
2019-06-10T22:33:08.997Z,3.53
2019-06-10T22:35:12.678Z,3.80
2019-06-10T22:37:16.237Z,3.70
2019-06-10T22:39:22.262Z,3.80
2019-06-10T22:41:25.622Z,4.20
2019-06-10T22:43:29.137Z,4.20
2019-06-10T22:45:32.682Z,5.00
2019-06-10T22:47:36.201Z,4.60
2019-06-10T22:49:40.020Z,4.77
2019-06-10T22:51:44.344Z,4.73
2019-06-10T22:53:48.325Z,5.77
2019-06-10T22:55:53.459Z,4.93
2019-06-10T22:57:59.859Z,4.70
2019-06-10T23:00:03.281Z,5.30
2019-06-10T23:02:07.247Z,5.67
2019-06-10T23:04:13.275Z,5.87
2019-06-10T23:06:16.591Z,5.20
2019-06-10T23:08:22.829Z,5.53
2019-06-10T23:10:25.768Z,6.73
2019-06-10T23:12:29.633Z,6.20
2019-06-10T23:14:33.384Z,6.10
2019-06-10T23:16:36.986Z,6.67
2019-06-10T23:18:42.481Z,7.37
2019-06-10T23:20:46.082Z,6.83
2019-06-10T23:22:49.882Z,7.00
2019-06-10T23:24:53.648Z,7.30
2019-06-10T23:26:58.026Z,7.17
2019-06-10T23:29:03.294Z,6.90
2019-06-10T23:31:07.524Z,6.53
2019-06-10T23:33:12.439Z,6.83
2019-06-10T23:35:16.832Z,6.20
2019-06-10T23:37:22.815Z,5.80
2019-06-10T23:39:26.142Z,6.10
2019-06-10T23:41:30.056Z,6.47
2019-06-10T23:43:34.364Z,6.07
2019-06-10T23:45:38.286Z,5.87
2019-06-10T23:47:43.249Z,5.60
2019-06-10T23:49:47.214Z,5.67
2019-06-10T23:51:53.813Z,6.77
2019-06-10T23:53:58.810Z,6.83
2019-06-10T23:56:04.752Z,5.77
2019-06-10T23:58:07.748Z,6.33
